Time;durP1;ratioP1;P1;durP2;ratioP2;P2;SDS_P1;SDS_P2;PMS_P1;PMS_P2;Temp;Humidity;BMP_temperature;BMP_pressure;BME280_temperature;BME280_humidity;BME280_pressure;Samples;Min_cycle;Max_cycle;Signal;HPM_P1;HPM_P2
2024/01/22 00:02:12;;;;;;;13.85;6.15;;;;;;;;;;4968011;28;20053;-71
2024/01/22 00:04:38;;;;;;;9.30;5.47;;;;;;;;;;4952865;28;20506;-71
2024/01/22 00:07:04;;;;;;;12.93;5.95;;;;;;;;;;4958777;28;20043;-71
2024/01/22 00:09:30;;;;;;;13.27;5.95;;;;;;;;;;4958083;28;20050;-71
2024/01/22 00:11:56;;;;;;;13.93;5.47;;;;;;;;;;4952133;28;20402;-71
2024/01/22 00:14:22;;;;;;;13.30;5.90;;;;;;;;;;4952100;28;20043;-71
2024/01/22 00:16:48;;;;;;;10.60;5.40;;;;;;;;;;4951653;28;20101;-71
2024/01/22 00:19:14;;;;;;;9.15;4.90;;;;;;;;;;4951393;28;20046;-71
2024/01/22 00:21:43;;;;;;;10.07;5.43;;;;;;;;;;4972818;28;20055;-71
2024/01/22 00:24:10;;;;;;;9.65;5.45;;;;;;;;;;4966055;28;20053;-71
2024/01/22 00:26:36;;;;;;;8.68;5.20;;;;;;;;;;4945420;28;20042;-71
2024/01/22 00:29:02;;;;;;;11.15;6.32;;;;;;;;;;4967854;28;20042;-71
2024/01/22 00:31:28;;;;;;;11.82;6.22;;;;;;;;;;4959132;28;20046;-71
2024/01/22 00:33:54;;;;;;;9.65;5.50;;;;;;;;;;4984780;28;20050;-71
2024/01/22 00:36:20;;;;;;;9.25;5.50;;;;;;;;;;4952554;28;20050;-71
2024/01/22 00:38:46;;;;;;;10.98;5.38;;;;;;;;;;4952125;28;20112;-71
2024/01/22 00:41:12;;;;;;;11.07;5.20;;;;;;;;;;4967452;28;20050;-71
2024/01/22 00:43:38;;;;;;;9.85;5.47;;;;;;;;;;4952212;28;20493;-71
2024/01/22 00:46:04;;;;;;;12.15;5.80;;;;;;;;;;4968228;28;20092;-71
2024/01/22 00:48:30;;;;;;;10.20;5.88;;;;;;;;;;4952159;28;20383;-71
2024/01/22 00:50:56;;;;;;;11.73;5.85;;;;;;;;;;4951723;28;20636;-71
2024/01/22 00:53:22;;;;;;;10.10;5.15;;;;;;;;;;4951826;28;20047;-71
2024/01/22 00:55:48;;;;;;;9.68;5.45;;;;;;;;;;4962436;28;20047;-71
2024/01/22 00:58:14;;;;;;;11.02;4.82;;;;;;;;;;4968007;28;20043;-71
2024/01/22 01:00:40;;;;;;;10.50;4.82;;;;;;;;;;4951730;28;20509;-71
2024/01/22 01:03:06;;;;;;;9.10;5.03;;;;;;;;;;4951499;28;20074;-71
2024/01/22 01:05:32;;;;;;;9.85;4.80;;;;;;;;;;4951842;28;20055;-71
2024/01/22 01:07:58;;;;;;;7.75;4.90;;;;;;;;;;4951587;28;20133;-71
2024/01/22 01:10:24;;;;;;;7.32;4.45;;;;;;;;;;4951468;28;20049;-71
2024/01/22 01:12:50;;;;;;;9.15;4.82;;;;;;;;;;4951058;28;20050;-71
2024/01/22 01:15:17;;;;;;;8.38;4.72;;;;;;;;;;4951643;28;20098;-71
2024/01/22 01:17:43;;;;;;;10.80;4.70;;;;;;;;;;4983498;28;20069;-71
2024/01/22 01:20:10;;;;;;;10.30;4.47;;;;;;;;;;4964042;28;20046;-71
2024/01/22 01:22:36;;;;;;;9.65;4.60;;;;;;;;;;4982068;28;20039;-71
2024/01/22 01:25:02;;;;;;;6.05;3.85;;;;;;;;;;4951906;28;20383;-71
2024/01/22 01:27:28;;;;;;;8.15;4.75;;;;;;;;;;4951180;28;20081;-71
2024/01/22 01:29:54;;;;;;;7.30;4.45;;;;;;;;;;4950477;28;20516;-71
2024/01/22 01:32:20;;;;;;;10.85;4.75;;;;;;;;;;4951237;28;20046;-71
2024/01/22 01:34:46;;;;;;;8.90;4.90;;;;;;;;;;4952880;28;20046;-71
2024/01/22 01:37:12;;;;;;;8.48;4.55;;;;;;;;;;4950579;28;20066;-71
2024/01/22 01:39:38;;;;;;;11.93;5.43;;;;;;;;;;4959058;28;20104;-71
2024/01/22 01:42:04;;;;;;;10.43;4.85;;;;;;;;;;4951308;28;20047;-71
2024/01/22 01:44:47;;;;;;;7.90;5.50;;;;;;;;;;4967822;28;20042;-72
2024/01/22 01:47:13;;;;;;;13.75;5.20;;;;;;;;;;4962420;28;20043;-72
2024/01/22 01:49:39;;;;;;;8.95;5.03;;;;;;;;;;4950466;28;20381;-72
2024/01/22 01:52:05;;;;;;;7.63;3.90;;;;;;;;;;4931476;29;20047;-72
2024/01/22 01:54:31;;;;;;;9.88;5.65;;;;;;;;;;4924435;28;20053;-72
2024/01/22 01:56:57;;;;;;;10.63;5.32;;;;;;;;;;4950813;28;20039;-72
2024/01/22 01:59:23;;;;;;;9.50;5.20;;;;;;;;;;4956479;28;20064;-73
2024/01/22 02:01:49;;;;;;;8.77;4.85;;;;;;;;;;4966963;28;20047;-73
2024/01/22 02:04:15;;;;;;;11.50;5.63;;;;;;;;;;4966389;28;20066;-73
2024/01/22 02:06:41;;;;;;;9.18;4.93;;;;;;;;;;4966872;28;20486;-73
2024/01/22 02:09:07;;;;;;;10.68;5.30;;;;;;;;;;4958910;28;20121;-73
2024/01/22 02:11:33;;;;;;;15.15;5.78;;;;;;;;;;4956160;28;20078;-73
2024/01/22 02:14:00;;;;;;;10.10;5.28;;;;;;;;;;4950899;28;20130;-73
2024/01/22 02:16:26;;;;;;;11.27;5.55;;;;;;;;;;4964711;28;20353;-73
2024/01/22 02:18:52;;;;;;;13.07;6.07;;;;;;;;;;4965911;28;20055;-73
2024/01/22 02:21:18;;;;;;;9.38;5.75;;;;;;;;;;4950967;28;20074;-73
2024/01/22 02:23:44;;;;;;;9.10;5.20;;;;;;;;;;4958386;28;20050;-72
2024/01/22 02:26:09;;;;;;;8.82;4.80;;;;;;;;;;4962163;28;20035;-72
2024/01/22 02:28:35;;;;;;;8.20;5.13;;;;;;;;;;4964696;28;20536;-72
2024/01/22 02:31:02;;;;;;;13.32;5.25;;;;;;;;;;4965183;28;20061;-72
2024/01/22 02:33:28;;;;;;;8.30;4.47;;;;;;;;;;4982815;28;20058;-72
2024/01/22 02:35:54;;;;;;;10.00;4.80;;;;;;;;;;4950906;28;20129;-72
2024/01/22 02:38:20;;;;;;;8.60;4.97;;;;;;;;;;4950332;28;20462;-72
2024/01/22 02:40:46;;;;;;;13.52;5.70;;;;;;;;;;4950501;28;20120;-72
2024/01/22 02:43:12;;;;;;;8.27;5.07;;;;;;;;;;4956884;28;20123;-73
2024/01/22 02:45:39;;;;;;;12.30;4.97;;;;;;;;;;4971020;28;20573;-73
2024/01/22 02:48:05;;;;;;;10.55;5.88;;;;;;;;;;4970084;28;20046;-73
2024/01/22 02:50:31;;;;;;;9.75;5.00;;;;;;;;;;4954456;28;20050;-73
2024/01/22 02:52:57;;;;;;;10.48;5.30;;;;;;;;;;4953851;28;20579;-73
2024/01/22 02:55:23;;;;;;;12.10;4.53;;;;;;;;;;4958337;28;20047;-73
2024/01/22 02:57:49;;;;;;;10.32;5.20;;;;;;;;;;4970260;28;20505;-73
2024/01/22 03:00:15;;;;;;;7.93;5.00;;;;;;;;;;4969841;28;20046;-73
2024/01/22 03:02:41;;;;;;;9.18;4.82;;;;;;;;;;4970135;28;20505;-73
2024/01/22 03:05:07;;;;;;;8.77;5.28;;;;;;;;;;4957092;28;20348;-73
2024/01/22 03:07:33;;;;;;;12.10;5.40;;;;;;;;;;4953922;28;20047;-73
2024/01/22 03:09:59;;;;;;;11.27;4.72;;;;;;;;;;4953463;28;20043;-73
2024/01/22 03:12:25;;;;;;;10.55;5.55;;;;;;;;;;4953466;28;20038;-73
2024/01/22 03:14:51;;;;;;;7.70;5.32;;;;;;;;;;4953640;28;20081;-73
2024/01/22 03:17:17;;;;;;;8.25;4.70;;;;;;;;;;4969818;28;20034;-73
2024/01/22 03:19:43;;;;;;;6.18;4.85;;;;;;;;;;4969432;28;20038;-73
2024/01/22 03:22:09;;;;;;;5.80;3.80;;;;;;;;;;4954981;28;20391;-73
2024/01/22 03:24:37;;;;;;;7.93;5.03;;;;;;;;;;4953046;28;20065;-73
2024/01/22 03:27:03;;;;;;;11.35;5.25;;;;;;;;;;4954911;28;20541;-73
2024/01/22 03:29:29;;;;;;;10.75;4.80;;;;;;;;;;4969237;28;20387;-73
2024/01/22 03:31:55;;;;;;;10.13;4.88;;;;;;;;;;4961863;28;20054;-73
2024/01/22 03:34:22;;;;;;;8.25;4.32;;;;;;;;;;4953504;28;20446;-73
2024/01/22 03:36:48;;;;;;;7.93;4.75;;;;;;;;;;4971136;28;20046;-73
2024/01/22 03:39:14;;;;;;;7.90;4.80;;;;;;;;;;4954450;28;20415;-73
2024/01/22 03:41:40;;;;;;;9.15;4.68;;;;;;;;;;4969369;28;20588;-73
2024/01/22 03:44:06;;;;;;;8.65;5.00;;;;;;;;;;4961227;28;20049;-73
2024/01/22 03:46:32;;;;;;;7.80;4.88;;;;;;;;;;4953395;28;20078;-73
2024/01/22 03:48:58;;;;;;;7.65;5.10;;;;;;;;;;4953344;28;20478;-73
2024/01/22 03:51:24;;;;;;;10.10;5.03;;;;;;;;;;4947685;29;20130;-73
2024/01/22 03:53:50;;;;;;;7.70;4.78;;;;;;;;;;4933593;28;20474;-73
2024/01/22 03:56:19;;;;;;;10.95;5.55;;;;;;;;;;4946905;28;20105;-73
2024/01/22 03:58:45;;;;;;;7.38;4.03;;;;;;;;;;4953283;28;20042;-73
2024/01/22 04:01:18;;;;;;;9.05;5.30;;;;;;;;;;4953236;28;20055;-73
2024/01/22 04:03:44;;;;;;;9.30;5.03;;;;;;;;;;4957940;28;20493;-73
2024/01/22 04:06:10;;;;;;;7.78;5.03;;;;;;;;;;4969539;28;20084;-73
2024/01/22 04:08:36;;;;;;;8.30;5.03;;;;;;;;;;4956719;28;20043;-73
2024/01/22 04:11:02;;;;;;;7.05;4.60;;;;;;;;;;4952944;28;20047;-73
2024/01/22 04:13:28;;;;;;;9.00;5.45;;;;;;;;;;4953098;28;20125;-73
2024/01/22 04:15:54;;;;;;;10.43;5.82;;;;;;;;;;4958312;28;20047;-73
2024/01/22 04:18:20;;;;;;;9.02;4.78;;;;;;;;;;4969642;28;20086;-73
2024/01/22 04:20:46;;;;;;;9.23;4.78;;;;;;;;;;4964926;28;20074;-73
2024/01/22 04:23:12;;;;;;;8.07;4.93;;;;;;;;;;4968687;28;20057;-73
2024/01/22 04:25:38;;;;;;;9.20;4.95;;;;;;;;;;4952308;28;20089;-73
2024/01/22 04:28:04;;;;;;;8.00;4.60;;;;;;;;;;4960087;28;20436;-73
2024/01/22 04:30:30;;;;;;;6.57;4.18;;;;;;;;;;4968822;28;20038;-73
2024/01/22 04:32:56;;;;;;;7.90;4.68;;;;;;;;;;4955087;28;20046;-73
2024/01/22 04:35:22;;;;;;;10.20;4.65;;;;;;;;;;4967918;28;20042;-73
2024/01/22 04:37:48;;;;;;;6.60;4.10;;;;;;;;;;4953031;28;20516;-73
2024/01/22 04:40:15;;;;;;;7.03;3.83;;;;;;;;;;4951629;28;20101;-73
2024/01/22 04:42:41;;;;;;;7.70;4.70;;;;;;;;;;4968912;28;20460;-73
2024/01/22 04:45:08;;;;;;;6.35;4.03;;;;;;;;;;4952442;28;20486;-73
2024/01/22 04:47:34;;;;;;;8.13;4.25;;;;;;;;;;4952798;28;20051;-73
2024/01/22 04:50:00;;;;;;;6.07;4.25;;;;;;;;;;4952046;28;20165;-73
2024/01/22 04:52:26;;;;;;;5.82;4.05;;;;;;;;;;4960589;28;20129;-73
2024/01/22 04:54:52;;;;;;;6.68;3.65;;;;;;;;;;4960201;28;20502;-73
2024/01/22 04:57:18;;;;;;;4.70;3.45;;;;;;;;;;4967670;28;20042;-73
2024/01/22 04:59:44;;;;;;;4.55;3.60;;;;;;;;;;4967980;28;20035;-73
2024/01/22 05:02:10;;;;;;;5.65;3.90;;;;;;;;;;4967980;28;20462;-73
2024/01/22 05:04:36;;;;;;;5.97;4.28;;;;;;;;;;4966422;28;20051;-73
2024/01/22 05:07:02;;;;;;;4.07;3.40;;;;;;;;;;4967126;28;20098;-73
2024/01/22 05:09:28;;;;;;;5.60;3.67;;;;;;;;;;4968006;28;20216;-73
2024/01/22 05:11:54;;;;;;;5.53;3.15;;;;;;;;;;4966939;28;20069;-73
2024/01/22 05:14:20;;;;;;;6.93;2.85;;;;;;;;;;4968446;28;20047;-73
2024/01/22 05:16:46;;;;;;;6.65;3.83;;;;;;;;;;4959563;28;20122;-73
2024/01/22 05:19:12;;;;;;;4.45;3.38;;;;;;;;;;4953744;28;20051;-73
2024/01/22 05:21:38;;;;;;;4.35;3.40;;;;;;;;;;4959411;28;20061;-73
2024/01/22 05:24:04;;;;;;;5.15;3.13;;;;;;;;;;4953870;28;20093;-73
2024/01/22 05:26:30;;;;;;;3.75;3.10;;;;;;;;;;4952120;28;20131;-73
2024/01/22 05:28:56;;;;;;;8.98;3.47;;;;;;;;;;4963475;28;20125;-73
2024/01/22 05:31:22;;;;;;;4.75;2.97;;;;;;;;;;4967111;28;20116;-73
2024/01/22 05:33:48;;;;;;;8.52;3.03;;;;;;;;;;4951719;28;20043;-73
2024/01/22 05:36:14;;;;;;;4.68;2.92;;;;;;;;;;4956703;28;20498;-73
2024/01/22 05:38:41;;;;;;;4.57;2.67;;;;;;;;;;4966980;28;20049;-73
2024/01/22 05:41:07;;;;;;;4.78;2.83;;;;;;;;;;4966878;28;20595;-73
2024/01/22 05:43:33;;;;;;;2.58;2.10;;;;;;;;;;4966388;28;20042;-73
2024/01/22 05:45:59;;;;;;;4.70;2.17;;;;;;;;;;4966336;28;20401;-73
2024/01/22 05:48:25;;;;;;;2.83;2.10;;;;;;;;;;4959798;28;20039;-73
2024/01/22 05:50:51;;;;;;;4.20;3.45;;;;;;;;;;4950250;28;20501;-73
2024/01/22 05:53:17;;;;;;;2.53;1.50;;;;;;;;;;4931404;29;20075;-73
2024/01/22 05:55:43;;;;;;;2.00;1.80;;;;;;;;;;4932667;28;20043;-73
2024/01/22 05:58:09;;;;;;;4.20;1.77;;;;;;;;;;4967002;28;20093;-73
2024/01/22 06:00:35;;;;;;;3.45;1.50;;;;;;;;;;4958533;28;20070;-73
2024/01/22 06:03:01;;;;;;;1.65;1.42;;;;;;;;;;4967618;28;20043;-73
2024/01/22 06:05:27;;;;;;;1.92;1.10;;;;;;;;;;4952621;28;20051;-73
2024/01/22 06:07:54;;;;;;;1.92;1.00;;;;;;;;;;4951054;28;20097;-73
2024/01/22 06:10:20;;;;;;;2.05;1.30;;;;;;;;;;4950975;28;20050;-73
2024/01/22 06:12:47;;;;;;;5.40;1.27;;;;;;;;;;4951185;28;20375;-73
2024/01/22 06:15:13;;;;;;;1.50;1.20;;;;;;;;;;4983217;28;20046;-73
2024/01/22 06:17:39;;;;;;;3.15;1.15;;;;;;;;;;4953736;28;20497;-73
2024/01/22 06:20:06;;;;;;;3.80;1.30;;;;;;;;;;4954908;28;20049;-73
2024/01/22 06:22:33;;;;;;;2.03;1.13;;;;;;;;;;4939162;28;20590;-73
2024/01/22 06:25:00;;;;;;;2.42;0.90;;;;;;;;;;4954659;28;20043;-73
2024/01/22 06:27:26;;;;;;;4.85;1.38;;;;;;;;;;4955448;28;20077;-73
2024/01/22 06:29:56;;;;;;;4.70;1.25;;;;;;;;;;4956945;28;20043;-73
2024/01/22 06:32:22;;;;;;;5.35;1.20;;;;;;;;;;4936174;29;20039;-73
2024/01/22 06:34:48;;;;;;;4.50;1.30;;;;;;;;;;4957825;28;20094;-73
2024/01/22 06:37:15;;;;;;;2.47;1.30;;;;;;;;;;4950649;29;20133;-73
2024/01/22 06:39:41;;;;;;;1.92;1.20;;;;;;;;;;4954011;28;20052;-73
2024/01/22 06:42:07;;;;;;;3.47;1.20;;;;;;;;;;4954364;28;20656;-73
2024/01/22 06:44:33;;;;;;;2.22;1.38;;;;;;;;;;4970356;28;20070;-73
2024/01/22 06:47:00;;;;;;;3.15;1.23;;;;;;;;;;4972861;28;20501;-73
2024/01/22 06:49:26;;;;;;;6.80;1.65;;;;;;;;;;4963605;28;20043;-73
2024/01/22 06:51:52;;;;;;;5.60;1.48;;;;;;;;;;4956685;28;20057;-73
2024/01/22 06:54:19;;;;;;;5.20;1.60;;;;;;;;;;4970589;28;20556;-73
2024/01/22 06:56:45;;;;;;;5.30;1.80;;;;;;;;;;4971765;28;20054;-73
2024/01/22 06:59:11;;;;;;;5.90;1.90;;;;;;;;;;4989617;28;20142;-73
2024/01/22 07:01:37;;;;;;;11.18;2.70;;;;;;;;;;4972877;28;20042;-73
2024/01/22 07:04:03;;;;;;;12.23;2.50;;;;;;;;;;4973562;28;20505;-73
2024/01/22 07:06:29;;;;;;;17.05;2.35;;;;;;;;;;4972093;28;20046;-73
2024/01/22 07:08:55;;;;;;;13.70;2.97;;;;;;;;;;4973336;28;20045;-73
2024/01/22 07:11:21;;;;;;;24.17;3.45;;;;;;;;;;4957735;28;20614;-73
2024/01/22 07:13:47;;;;;;;14.60;3.33;;;;;;;;;;4938973;28;20096;-73
2024/01/22 07:16:13;;;;;;;15.45;3.30;;;;;;;;;;4971093;28;20038;-73
2024/01/22 07:18:39;;;;;;;17.88;3.47;;;;;;;;;;4972198;28;20133;-73
2024/01/22 07:21:06;;;;;;;19.23;3.65;;;;;;;;;;4954728;28;20133;-73
2024/01/22 07:23:32;;;;;;;23.13;3.58;;;;;;;;;;4958384;28;20599;-73
2024/01/22 07:25:59;;;;;;;15.90;3.22;;;;;;;;;;4984888;28;20074;-73
2024/01/22 07:28:25;;;;;;;20.33;3.25;;;;;;;;;;4953242;28;20375;-73
2024/01/22 07:30:53;;;;;;;16.63;3.22;;;;;;;;;;4958299;28;20062;-73
2024/01/22 07:33:19;;;;;;;19.10;3.92;;;;;;;;;;4960495;28;20525;-73
2024/01/22 07:35:46;;;;;;;17.35;4.32;;;;;;;;;;4959328;28;20061;-70
2024/01/22 07:38:12;;;;;;;22.58;3.95;;;;;;;;;;4970434;28;20050;-70
2024/01/22 07:40:39;;;;;;;18.35;3.60;;;;;;;;;;4972136;28;20035;-70
2024/01/22 07:43:05;;;;;;;25.98;4.10;;;;;;;;;;4971376;28;20524;-70
2024/01/22 07:45:31;;;;;;;21.33;4.40;;;;;;;;;;4970297;28;20134;-68
2024/01/22 07:47:57;;;;;;;22.67;4.40;;;;;;;;;;4972974;28;20404;-70
2024/01/22 07:50:23;;;;;;;23.85;4.25;;;;;;;;;;4965236;28;20043;-70
2024/01/22 07:52:49;;;;;;;21.05;4.00;;;;;;;;;;4969887;28;20043;-71
2024/01/22 07:55:17;;;;;;;31.50;4.93;;;;;;;;;;4972705;28;20037;-71
2024/01/22 07:57:43;;;;;;;32.15;5.15;;;;;;;;;;4961528;28;20047;-71
2024/01/22 08:00:11;;;;;;;25.42;4.65;;;;;;;;;;4956834;28;20134;-71
2024/01/22 08:02:39;;;;;;;19.92;4.40;;;;;;;;;;4970951;28;20129;-69
2024/01/22 08:05:05;;;;;;;20.40;4.10;;;;;;;;;;4969950;28;20055;-70
2024/01/22 08:07:31;;;;;;;28.40;4.88;;;;;;;;;;4958355;28;20049;-69
2024/01/22 08:09:57;;;;;;;20.88;4.80;;;;;;;;;;4972059;28;20035;-69
2024/01/22 08:12:23;;;;;;;27.60;5.22;;;;;;;;;;4972202;28;20082;-69
2024/01/22 08:14:49;;;;;;;28.30;4.47;;;;;;;;;;4970801;28;20587;-70
2024/01/22 08:17:15;;;;;;;18.55;4.22;;;;;;;;;;4971899;28;20039;-69
2024/01/22 08:19:41;;;;;;;18.35;4.25;;;;;;;;;;4971495;28;20536;-70
2024/01/22 08:22:07;;;;;;;24.38;5.25;;;;;;;;;;4969506;28;20082;-70
2024/01/22 08:24:33;;;;;;;31.58;6.18;;;;;;;;;;4970370;28;20499;-70
2024/01/22 08:27:00;;;;;;;32.95;5.38;;;;;;;;;;4971977;28;20738;-69
2024/01/22 08:29:26;;;;;;;33.00;5.78;;;;;;;;;;4959827;28;20043;-69
2024/01/22 08:31:53;;;;;;;30.38;5.35;;;;;;;;;;4954515;28;20101;-68
2024/01/22 08:34:19;;;;;;;31.75;6.03;;;;;;;;;;4971591;28;20129;-68
2024/01/22 08:36:45;;;;;;;26.70;5.97;;;;;;;;;;4971503;28;20167;-68
2024/01/22 08:39:11;;;;;;;26.92;4.95;;;;;;;;;;4969229;28;20074;-69
2024/01/22 08:41:37;;;;;;;26.30;5.05;;;;;;;;;;4971271;28;20162;-68
2024/01/22 08:44:05;;;;;;;20.02;4.10;;;;;;;;;;4971809;28;20042;-68
2024/01/22 08:46:31;;;;;;;19.25;3.83;;;;;;;;;;4969299;28;20051;-69
2024/01/22 08:48:57;;;;;;;19.98;4.40;;;;;;;;;;4969998;28;20085;-68
2024/01/22 08:51:23;;;;;;;19.20;4.13;;;;;;;;;;4971693;28;20117;-68
2024/01/22 08:53:49;;;;;;;34.63;5.30;;;;;;;;;;4970850;28;20042;-68
2024/01/22 08:56:15;;;;;;;38.78;5.85;;;;;;;;;;4970515;28;20512;-68
2024/01/22 08:58:41;;;;;;;34.80;5.50;;;;;;;;;;4958124;28;20046;-68
2024/01/22 09:01:07;;;;;;;57.90;7.20;;;;;;;;;;4969993;28;20078;-69
2024/01/22 09:03:33;;;;;;;43.92;7.30;;;;;;;;;;4953224;28;20097;-68
2024/01/22 09:06:00;;;;;;;47.67;6.60;;;;;;;;;;4969495;28;20047;-69
2024/01/22 09:08:26;;;;;;;45.42;6.65;;;;;;;;;;4969726;28;20041;-68
2024/01/22 09:10:52;;;;;;;51.60;6.50;;;;;;;;;;4970903;28;20043;-69
2024/01/22 09:13:18;;;;;;;56.17;7.72;;;;;;;;;;4971083;28;20074;-69
2024/01/22 09:15:44;;;;;;;47.13;7.30;;;;;;;;;;4971347;28;20603;-69
2024/01/22 09:18:10;;;;;;;51.05;8.85;;;;;;;;;;4969226;28;20051;-68
2024/01/22 09:20:36;;;;;;;56.65;9.07;;;;;;;;;;4970088;28;20656;-68
2024/01/22 09:23:02;;;;;;;48.92;7.45;;;;;;;;;;4970945;28;20097;-69
2024/01/22 09:25:28;;;;;;;65.43;8.30;;;;;;;;;;4970203;28;20039;-69
2024/01/22 09:27:54;;;;;;;50.20;8.65;;;;;;;;;;4971235;28;20057;-69
2024/01/22 09:30:20;;;;;;;47.05;7.70;;;;;;;;;;4969653;28;20034;-69
2024/01/22 09:32:46;;;;;;;54.60;7.40;;;;;;;;;;4970695;28;20565;-69
2024/01/22 09:35:14;;;;;;;52.05;8.18;;;;;;;;;;4970588;28;20562;-69
2024/01/22 09:37:40;;;;;;;61.00;8.88;;;;;;;;;;4955986;28;20043;-70
2024/01/22 09:40:07;;;;;;;49.85;6.95;;;;;;;;;;4969091;28;20039;-69
2024/01/22 09:42:33;;;;;;;61.05;8.82;;;;;;;;;;4954890;28;20046;-69
2024/01/22 09:44:59;;;;;;;46.38;7.78;;;;;;;;;;4953111;28;20045;-69
2024/01/22 09:47:26;;;;;;;61.33;9.38;;;;;;;;;;4952222;28;20035;-69
2024/01/22 09:49:53;;;;;;;58.80;8.80;;;;;;;;;;4963877;28;20046;-69
2024/01/22 09:52:19;;;;;;;60.85;8.35;;;;;;;;;;4970411;28;20109;-69
2024/01/22 09:54:45;;;;;;;52.42;7.93;;;;;;;;;;4970043;28;20042;-69
2024/01/22 09:57:17;;;;;;;64.53;9.60;;;;;;;;;;4970264;28;20144;-69
2024/01/22 09:59:43;;;;;;;64.28;9.82;;;;;;;;;;4968754;28;20130;-69
2024/01/22 10:02:11;;;;;;;66.25;8.65;;;;;;;;;;4961547;28;20544;-73
2024/01/22 10:04:37;;;;;;;68.55;10.07;;;;;;;;;;4941869;28;20048;-68
2024/01/22 10:07:04;;;;;;;56.42;8.95;;;;;;;;;;4966756;28;20046;-73
2024/01/22 10:09:30;;;;;;;74.18;9.65;;;;;;;;;;4963505;28;20058;-67
2024/01/22 10:11:57;;;;;;;77.18;10.43;;;;;;;;;;4961410;28;20437;-65
2024/01/22 10:14:37;;;;;;;63.17;9.75;;;;;;;;;;4966711;28;20125;-66
2024/01/22 10:17:36;;;;;;;62.90;8.38;;;;;;;;;;4969392;28;20081;-65
2024/01/22 10:20:07;;;;;;;60.25;9.15;;;;;;;;;;4925890;28;20090;-66
2024/01/22 10:22:33;;;;;;;64.50;8.70;;;;;;;;;;4968533;28;20655;-65
2024/01/22 10:25:03;;;;;;;72.32;10.65;;;;;;;;;;4967269;28;20034;-65
2024/01/22 10:27:29;;;;;;;70.85;9.40;;;;;;;;;;4969683;28;20039;-65
2024/01/22 10:30:09;;;;;;;68.93;9.45;;;;;;;;;;4962126;28;20671;-65
2024/01/22 10:32:35;;;;;;;61.35;10.45;;;;;;;;;;4969596;28;20102;-65
2024/01/22 10:35:02;;;;;;;66.07;9.10;;;;;;;;;;4967408;28;20050;-66
2024/01/22 10:37:28;;;;;;;71.43;10.48;;;;;;;;;;4960911;28;20035;-66
2024/01/22 10:40:01;;;;;;;70.18;10.75;;;;;;;;;;4968222;28;20410;-65
2024/01/22 10:42:27;;;;;;;56.58;9.77;;;;;;;;;;4968457;28;20062;-66
2024/01/22 10:44:54;;;;;;;64.45;8.32;;;;;;;;;;4968609;28;20049;-66
2024/01/22 10:47:21;;;;;;;64.35;9.23;;;;;;;;;;4970553;28;20047;-64
2024/01/22 10:49:47;;;;;;;66.57;9.90;;;;;;;;;;4963565;28;20961;-65
2024/01/22 10:52:13;;;;;;;65.70;9.60;;;;;;;;;;4969397;28;20051;-66
2024/01/22 10:54:39;;;;;;;55.38;8.02;;;;;;;;;;4966675;28;20494;-65
2024/01/22 10:57:24;;;;;;;52.85;8.50;;;;;;;;;;4964341;28;20089;-66
2024/01/22 10:59:52;;;;;;;51.20;8.60;;;;;;;;;;4957859;28;20047;-66
2024/01/22 11:02:27;;;;;;;50.13;8.32;;;;;;;;;;4968363;28;20126;-65
2024/01/22 11:04:57;;;;;;;61.25;9.13;;;;;;;;;;4969948;28;20400;-65
2024/01/22 11:07:30;;;;;;;56.42;9.02;;;;;;;;;;4960795;28;20051;-65
2024/01/22 11:09:58;;;;;;;50.03;8.23;;;;;;;;;;4970212;28;20042;-66
2024/01/22 11:12:26;;;;;;;55.00;8.32;;;;;;;;;;4969704;28;20054;-65
2024/01/22 11:14:52;;;;;;;56.72;9.68;;;;;;;;;;4972873;28;20130;-66
2024/01/22 11:17:19;;;;;;;51.20;8.50;;;;;;;;;;4973672;28;20039;-66
2024/01/22 11:19:45;;;;;;;50.05;7.35;;;;;;;;;;4972001;28;20086;-65
2024/01/22 11:22:16;;;;;;;45.65;8.40;;;;;;;;;;4970803;28;20046;-65
2024/01/22 11:24:42;;;;;;;46.45;8.10;;;;;;;;;;4973244;28;20053;-65
2024/01/22 11:27:08;;;;;;;50.17;8.38;;;;;;;;;;4949730;28;20039;-64
2024/01/22 11:29:34;;;;;;;55.05;8.20;;;;;;;;;;4966760;28;20043;-65
2024/01/22 11:32:21;;;;;;;39.33;8.80;;;;;;;;;;4970333;28;20051;-65
2024/01/22 11:34:47;;;;;;;52.95;7.85;;;;;;;;;;4962806;28;20058;-65
2024/01/22 11:37:13;;;;;;;50.42;9.02;;;;;;;;;;4967972;28;20035;-65
2024/01/22 11:39:39;;;;;;;42.97;7.00;;;;;;;;;;4966157;28;20141;-65
2024/01/22 11:42:18;;;;;;;50.67;7.40;;;;;;;;;;4966072;28;20090;-65
2024/01/22 11:44:48;;;;;;;57.85;8.18;;;;;;;;;;4964805;28;20053;-65
2024/01/22 11:47:15;;;;;;;47.67;8.07;;;;;;;;;;4970372;28;20066;-65
2024/01/22 11:49:41;;;;;;;37.97;6.93;;;;;;;;;;4971787;28;20568;-65
2024/01/22 11:52:14;;;;;;;43.45;7.18;;;;;;;;;;4969075;28;20047;-66
2024/01/22 11:55:00;;;;;;;39.50;7.07;;;;;;;;;;4971134;28;20047;-66
2024/01/22 11:57:27;;;;;;;40.95;6.38;;;;;;;;;;4971847;28;20061;-66
2024/01/22 11:59:59;;;;;;;42.58;6.40;;;;;;;;;;4972042;28;20055;-66
2024/01/22 12:02:25;;;;;;;48.78;7.50;;;;;;;;;;4971352;28;20149;-66
2024/01/22 12:05:01;;;;;;;34.88;5.93;;;;;;;;;;4972136;28;20502;-67
2024/01/22 12:07:33;;;;;;;33.95;5.25;;;;;;;;;;4970482;28;20126;-66
2024/01/22 12:09:59;;;;;;;35.72;5.55;;;;;;;;;;4969359;28;20035;-66
2024/01/22 12:12:25;;;;;;;37.05;6.72;;;;;;;;;;4969234;28;20046;-66
2024/01/22 12:14:58;;;;;;;34.72;5.82;;;;;;;;;;4969395;28;20043;-66
2024/01/22 12:17:24;;;;;;;35.30;5.93;;;;;;;;;;4969509;28;20046;-66
2024/01/22 12:19:54;;;;;;;30.15;5.57;;;;;;;;;;4969475;28;20039;-66
2024/01/22 12:22:20;;;;;;;34.22;5.55;;;;;;;;;;4969404;28;20098;-66
2024/01/22 12:25:01;;;;;;;31.08;6.38;;;;;;;;;;4970347;28;20053;-66
2024/01/22 12:27:28;;;;;;;35.60;5.95;;;;;;;;;;4970468;28;20393;-66
2024/01/22 12:30:06;;;;;;;24.17;5.35;;;;;;;;;;4964249;28;20039;-66
2024/01/22 12:32:35;;;;;;;32.22;6.00;;;;;;;;;;4969808;28;20477;-66
2024/01/22 12:35:01;;;;;;;34.83;6.05;;;;;;;;;;4970232;28;20053;-66
2024/01/22 12:37:31;;;;;;;30.23;5.30;;;;;;;;;;4967619;28;20576;-66
2024/01/22 12:40:10;;;;;;;28.38;4.47;;;;;;;;;;4971213;28;20066;-66
2024/01/22 12:42:36;;;;;;;28.50;5.40;;;;;;;;;;4970821;28;20590;-66
2024/01/22 12:45:02;;;;;;;30.40;4.82;;;;;;;;;;4970848;28;20082;-65
2024/01/22 12:47:29;;;;;;;41.22;5.50;;;;;;;;;;4956519;28;20042;-66
2024/01/22 12:49:55;;;;;;;32.42;5.55;;;;;;;;;;4966330;28;20034;-66
2024/01/22 12:52:24;;;;;;;32.85;5.32;;;;;;;;;;4968997;28;20134;-67
2024/01/22 12:54:50;;;;;;;33.60;4.90;;;;;;;;;;4966358;28;20126;-67
2024/01/22 12:57:16;;;;;;;30.80;5.00;;;;;;;;;;4966843;28;20054;-66
2024/01/22 12:59:47;;;;;;;31.83;5.00;;;;;;;;;;4968385;28;20674;-66
2024/01/22 13:02:13;;;;;;;27.63;5.40;;;;;;;;;;4966652;28;20049;-65
2024/01/22 13:04:39;;;;;;;33.50;5.75;;;;;;;;;;4969134;28;20051;-65
2024/01/22 13:07:05;;;;;;;26.88;4.97;;;;;;;;;;4965502;28;20105;-66
2024/01/22 13:09:31;;;;;;;31.25;5.53;;;;;;;;;;4970775;28;20039;-66
2024/01/22 13:11:57;;;;;;;24.83;4.63;;;;;;;;;;4972907;28;20038;-66
2024/01/22 13:14:23;;;;;;;24.73;4.80;;;;;;;;;;4970571;28;20046;-66
2024/01/22 13:16:49;;;;;;;28.33;5.43;;;;;;;;;;4970393;28;20498;-65
2024/01/22 13:19:15;;;;;;;33.65;5.10;;;;;;;;;;4969593;28;20082;-67
2024/01/22 13:21:41;;;;;;;27.20;4.53;;;;;;;;;;4969635;28;20039;-67
2024/01/22 13:24:10;;;;;;;35.60;5.28;;;;;;;;;;4973710;28;20043;-66
2024/01/22 13:26:37;;;;;;;26.45;4.88;;;;;;;;;;4971410;28;20050;-68
2024/01/22 13:29:03;;;;;;;29.50;4.85;;;;;;;;;;4970775;28;20031;-66
2024/01/22 13:31:29;;;;;;;28.08;5.28;;;;;;;;;;4970364;28;20127;-66
2024/01/22 13:33:55;;;;;;;25.85;4.55;;;;;;;;;;4969522;28;20125;-65
2024/01/22 13:36:21;;;;;;;33.22;5.43;;;;;;;;;;4966419;28;20131;-66
2024/01/22 13:38:47;;;;;;;31.92;4.93;;;;;;;;;;4969524;28;20088;-66
2024/01/22 13:41:14;;;;;;;30.02;5.50;;;;;;;;;;4969651;28;20745;-66
2024/01/22 13:43:42;;;;;;;33.80;5.57;;;;;;;;;;4968888;28;20572;-66
2024/01/22 13:46:10;;;;;;;31.08;4.60;;;;;;;;;;4970692;28;20035;-66
2024/01/22 13:48:36;;;;;;;33.13;5.20;;;;;;;;;;4962774;28;20043;-67
2024/01/22 13:51:02;;;;;;;27.85;5.07;;;;;;;;;;4970228;28;20497;-66
2024/01/22 13:53:29;;;;;;;26.40;4.90;;;;;;;;;;4961057;28;20494;-66
2024/01/22 13:55:55;;;;;;;32.72;5.05;;;;;;;;;;4968885;28;20398;-66
2024/01/22 13:58:21;;;;;;;37.05;4.85;;;;;;;;;;4969265;28;20042;-66
2024/01/22 14:00:47;;;;;;;30.55;5.10;;;;;;;;;;4968809;28;20050;-66
2024/01/22 14:03:13;;;;;;;28.73;6.13;;;;;;;;;;4968458;28;20035;-66
2024/01/22 14:05:39;;;;;;;27.23;5.18;;;;;;;;;;4966772;28;20402;-65
2024/01/22 14:08:05;;;;;;;31.70;5.45;;;;;;;;;;4970377;28;20038;-66
2024/01/22 14:10:31;;;;;;;30.15;4.88;;;;;;;;;;4965756;28;20066;-66
2024/01/22 14:12:57;;;;;;;31.98;4.72;;;;;;;;;;4966974;28;20030;-66
2024/01/22 14:15:23;;;;;;;34.20;5.75;;;;;;;;;;4972550;28;20058;-66
2024/01/22 14:17:49;;;;;;;32.83;5.38;;;;;;;;;;4966107;28;20474;-67
2024/01/22 14:20:15;;;;;;;29.80;5.32;;;;;;;;;;4968992;28;20069;-67
2024/01/22 14:22:41;;;;;;;32.75;5.25;;;;;;;;;;4963232;28;20078;-67
2024/01/22 14:25:07;;;;;;;21.90;4.70;;;;;;;;;;4969947;28;20469;-67
2024/01/22 14:27:34;;;;;;;33.88;5.20;;;;;;;;;;4968266;28;20031;-65
2024/01/22 14:30:01;;;;;;;33.13;5.30;;;;;;;;;;4965768;28;20576;-68
2024/01/22 14:32:28;;;;;;;31.38;5.28;;;;;;;;;;4968653;28;20078;-66